createdAt,value
2018-01-15T00:00:24.652Z,1013.73
2018-01-15T00:01:24.641Z,1013.71
2018-01-15T00:02:24.636Z,1013.70
2018-01-15T00:03:24.625Z,1013.64
2018-01-15T00:04:24.612Z,1013.69
2018-01-15T00:05:24.601Z,1013.65
2018-01-15T00:06:24.586Z,1013.71
2018-01-15T00:07:24.576Z,1013.67
2018-01-15T00:08:24.564Z,1013.69
2018-01-15T00:09:24.555Z,1013.64
2018-01-15T00:10:24.547Z,1013.59
2018-01-15T00:11:24.536Z,1013.61
2018-01-15T00:12:24.525Z,1013.63
2018-01-15T00:13:24.514Z,1013.57
2018-01-15T00:14:24.504Z,1013.58
2018-01-15T00:15:24.493Z,1013.57
2018-01-15T00:16:24.480Z,1013.56
2018-01-15T00:17:24.471Z,1013.52
2018-01-15T00:18:24.455Z,1013.52
2018-01-15T00:19:24.445Z,1013.51
2018-01-15T00:20:24.433Z,1013.49
2018-01-15T00:21:24.422Z,1013.49
2018-01-15T00:22:24.411Z,1013.43
2018-01-15T00:23:24.400Z,1013.41
2018-01-15T00:24:24.391Z,1013.43
2018-01-15T00:25:24.378Z,1013.39
2018-01-15T00:26:24.372Z,1013.44
2018-01-15T00:27:24.363Z,1013.40
2018-01-15T00:28:24.349Z,1013.47
2018-01-15T00:29:24.338Z,1013.39
2018-01-15T00:30:24.327Z,1013.35
2018-01-15T00:31:24.316Z,1013.33
2018-01-15T00:32:24.304Z,1013.36
2018-01-15T00:33:24.293Z,1013.38
2018-01-15T00:34:24.278Z,1013.29
2018-01-15T00:35:24.268Z,1013.34
2018-01-15T00:36:24.255Z,1013.32
2018-01-15T00:37:24.245Z,1013.31
2018-01-15T00:38:24.233Z,1013.41
2018-01-15T00:39:24.221Z,1013.37
2018-01-15T00:40:24.210Z,1013.38
2018-01-15T00:41:24.199Z,1013.32
2018-01-15T00:42:24.191Z,1013.34
2018-01-15T00:43:24.182Z,1013.27
2018-01-15T00:44:24.169Z,1013.29
2018-01-15T00:45:24.158Z,1013.26
2018-01-15T00:46:24.147Z,1013.22
2018-01-15T00:47:24.136Z,1013.29
2018-01-15T00:48:24.124Z,1013.23
2018-01-15T00:49:24.113Z,1013.17
2018-01-15T00:50:24.098Z,1013.15
2018-01-15T00:51:24.087Z,1013.18
2018-01-15T00:52:24.075Z,1013.09
2018-01-15T00:53:24.065Z,1013.10
2018-01-15T00:54:24.052Z,1013.08
2018-01-15T00:55:24.041Z,1013.11
2018-01-15T00:56:24.030Z,1013.06
2018-01-15T00:57:24.019Z,1013.01
2018-01-15T00:58:24.012Z,1012.97
2018-01-15T00:59:24.003Z,1013.00
2018-01-15T01:00:23.989Z,1013.03
2018-01-15T01:01:23.986Z,1013.06
2018-01-15T01:02:23.967Z,1012.98
2018-01-15T01:03:23.956Z,1012.99
2018-01-15T01:04:23.946Z,1013.01
2018-01-15T01:05:23.933Z,1012.94
2018-01-15T01:06:23.918Z,1013.02
2018-01-15T01:07:23.908Z,1012.97
2018-01-15T01:08:23.895Z,1012.99
2018-01-15T01:09:23.885Z,1012.96
2018-01-15T01:10:23.878Z,1012.97
2018-01-15T01:11:23.872Z,1012.90
2018-01-15T01:12:23.855Z,1012.83
2018-01-15T01:13:23.844Z,1012.89
2018-01-15T01:14:23.829Z,1012.74
2018-01-15T01:15:23.818Z,1012.79
2018-01-15T01:16:23.806Z,1012.81
2018-01-15T01:17:23.796Z,1012.78
2018-01-15T01:18:23.785Z,1012.71
2018-01-15T01:19:23.773Z,1012.70
2018-01-15T01:20:23.761Z,1012.71
2018-01-15T01:21:23.751Z,1012.66
2018-01-15T01:22:23.744Z,1012.71
2018-01-15T01:23:23.733Z,1012.70
2018-01-15T01:24:23.722Z,1012.72
2018-01-15T01:25:23.710Z,1012.74
2018-01-15T01:26:23.700Z,1012.68
2018-01-15T01:27:23.689Z,1012.67
2018-01-15T01:28:23.676Z,1012.68
2018-01-15T01:29:23.666Z,1012.69
2018-01-15T01:30:23.651Z,1012.66
2018-01-15T01:31:23.643Z,1012.58
2018-01-15T01:32:23.627Z,1012.64
2018-01-15T01:33:23.616Z,1012.62
2018-01-15T01:34:23.606Z,1012.63
2018-01-15T01:35:23.594Z,1012.65
2018-01-15T01:36:23.582Z,1012.62
2018-01-15T01:37:23.572Z,1012.69
2018-01-15T01:38:23.565Z,1012.60
2018-01-15T01:39:23.553Z,1012.60
2018-01-15T01:40:23.541Z,1012.63
2018-01-15T01:41:23.530Z,1012.61
2018-01-15T01:42:23.521Z,1012.60
2018-01-15T01:43:23.509Z,1012.58
2018-01-15T01:44:23.495Z,1012.63
2018-01-15T01:45:23.485Z,1012.60
2018-01-15T01:46:23.470Z,1012.56
2018-01-15T01:47:23.458Z,1012.50
2018-01-15T01:48:23.446Z,1012.49
2018-01-15T01:49:23.435Z,1012.52
2018-01-15T01:50:23.424Z,1012.50
2018-01-15T01:51:23.414Z,1012.48
2018-01-15T01:52:23.400Z,1012.43
2018-01-15T01:53:23.389Z,1012.44
2018-01-15T01:54:23.383Z,1012.43
2018-01-15T01:55:23.371Z,1012.43
2018-01-15T01:56:23.359Z,1012.47
2018-01-15T01:57:23.348Z,1012.52
2018-01-15T01:58:23.338Z,1012.51
2018-01-15T01:59:23.332Z,1012.47
2018-01-15T02:00:23.314Z,1012.43
2018-01-15T02:01:23.303Z,1012.39
2018-01-15T02:02:23.287Z,1012.45
2018-01-15T02:03:23.276Z,1012.40
2018-01-15T02:04:23.265Z,1012.41
2018-01-15T02:05:23.253Z,1012.35
2018-01-15T02:06:23.241Z,1012.34
2018-01-15T02:07:23.231Z,1012.26
2018-01-15T02:08:23.224Z,1012.30
2018-01-15T02:09:23.208Z,1012.35
2018-01-15T02:10:23.201Z,1012.35
2018-01-15T02:11:23.189Z,1012.30
2018-01-15T02:12:23.177Z,1012.40
2018-01-15T02:13:23.166Z,1012.25
2018-01-15T02:14:23.152Z,1012.22
2018-01-15T02:15:23.141Z,1012.24
2018-01-15T02:16:23.128Z,1012.21
2018-01-15T02:17:23.117Z,1012.24
2018-01-15T02:18:23.111Z,1012.17
2018-01-15T02:19:23.103Z,1012.28
2018-01-15T02:20:23.088Z,1012.23
2018-01-15T02:21:23.076Z,1012.22
2018-01-15T02:22:23.066Z,1012.26
2018-01-15T02:23:23.056Z,1012.22
2018-01-15T02:24:23.044Z,1012.20
2018-01-15T02:25:23.032Z,1012.19
2018-01-15T02:26:23.017Z,1012.14
2018-01-15T02:27:23.006Z,1012.13
2018-01-15T02:28:22.994Z,1012.09
2018-01-15T02:29:22.983Z,1012.07
2018-01-15T02:30:22.977Z,1012.07
2018-01-15T02:31:22.962Z,1012.16
2018-01-15T02:32:22.952Z,1012.03
2018-01-15T02:33:22.940Z,1012.05
2018-01-15T02:34:22.934Z,1012.00
2018-01-15T02:35:22.922Z,1011.95
2018-01-15T02:36:22.912Z,1012.03
2018-01-15T02:37:22.900Z,1011.94
2018-01-15T02:38:22.890Z,1011.94
2018-01-15T02:39:22.880Z,1011.87
2018-01-15T02:40:22.867Z,1011.86
2018-01-15T02:41:22.857Z,1011.89
2018-01-15T02:42:22.849Z,1011.81
2018-01-15T02:43:22.832Z,1011.82
2018-01-15T02:44:22.824Z,1011.82
2018-01-15T02:45:22.809Z,1011.82
2018-01-15T02:46:22.798Z,1011.81
2018-01-15T02:47:22.789Z,1011.87
2018-01-15T02:48:22.777Z,1011.74
2018-01-15T02:49:22.767Z,1011.74
2018-01-15T02:50:22.760Z,1011.78
2018-01-15T02:51:22.749Z,1011.68
2018-01-15T02:52:22.738Z,1011.65
2018-01-15T02:53:22.729Z,1011.59
2018-01-15T02:54:22.718Z,1011.57
2018-01-15T02:55:22.707Z,1011.53
2018-01-15T02:56:22.696Z,1011.50
2018-01-15T02:57:22.685Z,1011.54
2018-01-15T02:58:22.672Z,1011.46
2018-01-15T02:59:22.663Z,1011.50
2018-01-15T03:00:22.648Z,1011.45
2018-01-15T03:01:22.639Z,1011.44
2018-01-15T03:02:22.627Z,1011.43
2018-01-15T03:03:22.618Z,1011.51
2018-01-15T03:04:22.607Z,1011.41
2018-01-15T03:05:22.596Z,1011.43
2018-01-15T03:06:22.590Z,1011.36
2018-01-15T03:07:22.579Z,1011.31
2018-01-15T03:08:22.568Z,1011.32
2018-01-15T03:09:22.558Z,1011.43
2018-01-15T03:10:22.547Z,1011.34
2018-01-15T03:11:22.536Z,1011.35
2018-01-15T03:12:22.526Z,1011.38
2018-01-15T03:13:22.515Z,1011.39
2018-01-15T03:14:22.501Z,1011.35
2018-01-15T03:15:22.491Z,1011.35
2018-01-15T03:16:22.478Z,1011.29
2018-01-15T03:17:22.470Z,1011.25
2018-01-15T03:18:22.458Z,1011.21
2018-01-15T03:19:22.447Z,1011.27
2018-01-15T03:20:22.437Z,1011.33
2018-01-15T03:21:22.425Z,1011.23
2018-01-15T03:22:22.419Z,1011.23
2018-01-15T03:23:22.408Z,1011.20
2018-01-15T03:24:22.398Z,1011.23
2018-01-15T03:25:22.387Z,1011.21
2018-01-15T03:26:22.379Z,1011.22
2018-01-15T03:27:22.368Z,1011.24
2018-01-15T03:28:22.355Z,1011.33
2018-01-15T03:29:22.344Z,1011.33
2018-01-15T03:30:22.331Z,1011.28
2018-01-15T03:31:22.323Z,1011.24
2018-01-15T03:32:22.309Z,1011.23
2018-01-15T03:33:22.299Z,1011.18
2018-01-15T03:34:22.287Z,1011.15
2018-01-15T03:35:22.278Z,1011.11
2018-01-15T03:36:22.265Z,1011.05
2018-01-15T03:37:22.255Z,1011.11
2018-01-15T03:38:22.249Z,1011.04
2018-01-15T03:39:22.239Z,1010.97
2018-01-15T03:40:22.255Z,1010.97
2018-01-15T03:41:22.217Z,1011.01
2018-01-15T03:42:22.206Z,1010.91
2018-01-15T03:43:22.198Z,1010.92
2018-01-15T03:44:22.186Z,1010.87
2018-01-15T03:45:22.175Z,1010.85
2018-01-15T03:46:22.161Z,1010.80
2018-01-15T03:47:22.149Z,1010.80
2018-01-15T03:48:22.139Z,1010.81
2018-01-15T03:49:22.128Z,1010.78
2018-01-15T03:50:22.118Z,1010.71
2018-01-15T03:51:22.109Z,1010.70
2018-01-15T03:52:22.096Z,1010.66
2018-01-15T03:53:22.087Z,1010.71
2018-01-15T03:54:22.080Z,1010.72
2018-01-15T03:55:22.071Z,1010.70
2018-01-15T03:56:22.058Z,1010.65
2018-01-15T03:57:22.049Z,1010.64
2018-01-15T03:58:22.039Z,1010.58
2018-01-15T03:59:22.028Z,1010.60
2018-01-15T04:00:22.016Z,1010.61
2018-01-15T04:01:22.006Z,1010.60
2018-01-15T04:02:21.991Z,1010.55
2018-01-15T04:03:21.981Z,1010.66
2018-01-15T04:04:21.970Z,1010.58
2018-01-15T04:05:21.966Z,1010.52
2018-01-15T04:06:21.949Z,1010.55
2018-01-15T04:07:21.940Z,1010.50
2018-01-15T04:08:21.929Z,1010.48
2018-01-15T04:09:21.917Z,1010.46
2018-01-15T04:10:21.912Z,1010.52
2018-01-15T04:11:21.901Z,1010.48
2018-01-15T04:12:21.890Z,1010.46
2018-01-15T04:13:21.880Z,1010.45
2018-01-15T04:14:21.871Z,1010.50
2018-01-15T04:15:21.859Z,1010.46
2018-01-15T04:16:21.848Z,1010.42
2018-01-15T04:17:21.839Z,1010.48
2018-01-15T04:18:21.824Z,1010.39
2018-01-15T04:19:21.814Z,1010.45
2018-01-15T04:20:21.802Z,1010.50
2018-01-15T04:21:21.792Z,1010.42
2018-01-15T04:22:21.786Z,1010.48
2018-01-15T04:23:21.776Z,1010.40
2018-01-15T04:24:21.768Z,1010.25
2018-01-15T04:25:21.756Z,1010.27
2018-01-15T04:26:21.740Z,1010.23
2018-01-15T04:27:21.731Z,1010.20
2018-01-15T04:28:21.718Z,1010.23
2018-01-15T04:29:21.709Z,1010.30
2018-01-15T04:30:21.698Z,1010.22
2018-01-15T04:31:21.688Z,1010.17
2018-01-15T04:32:21.677Z,1010.09
2018-01-15T04:33:21.667Z,1010.11
2018-01-15T04:34:21.661Z,1010.18
2018-01-15T04:35:21.651Z,1010.16
2018-01-15T04:36:21.642Z,1010.08
2018-01-15T04:37:21.629Z,1010.20
2018-01-15T04:38:21.621Z,1010.20
2018-01-15T04:39:21.613Z,1010.05
2018-01-15T04:40:21.597Z,1010.10
2018-01-15T04:41:21.587Z,1010.07
2018-01-15T04:42:21.574Z,1010.08
2018-01-15T04:43:21.564Z,1009.98
2018-01-15T04:44:21.553Z,1010.01
2018-01-15T04:45:21.542Z,1010.03
2018-01-15T04:46:21.532Z,1009.98
2018-01-15T04:47:21.523Z,1010.02
2018-01-15T04:48:21.510Z,1009.99
2018-01-15T04:49:21.500Z,1009.99
2018-01-15T04:50:21.496Z,1009.94
2018-01-15T04:51:21.485Z,1009.93
2018-01-15T04:52:21.473Z,1009.94
2018-01-15T04:53:21.462Z,1009.86
2018-01-15T04:54:21.454Z,1009.85
2018-01-15T04:55:21.442Z,1009.81
2018-01-15T04:56:21.432Z,1009.96
2018-01-15T04:57:21.423Z,1009.80
2018-01-15T04:58:21.407Z,1009.82
2018-01-15T04:59:21.398Z,1009.83
2018-01-15T05:00:21.386Z,1009.86
2018-01-15T05:01:21.376Z,1009.84
2018-01-15T05:02:21.366Z,1009.81
2018-01-15T05:03:21.355Z,1009.77
2018-01-15T05:04:21.344Z,1009.68
2018-01-15T05:05:21.335Z,1009.70
2018-01-15T05:06:21.330Z,1009.78
2018-01-15T05:07:21.320Z,1009.65
2018-01-15T05:08:21.308Z,1009.65
2018-01-15T05:09:21.297Z,1009.71
2018-01-15T05:10:21.287Z,1009.71
2018-01-15T05:11:21.281Z,1009.65
2018-01-15T05:12:21.266Z,1009.57
2018-01-15T05:13:21.257Z,1009.60
2018-01-15T05:14:21.242Z,1009.48
2018-01-15T05:15:21.232Z,1009.61
2018-01-15T05:16:21.227Z,1009.52
2018-01-15T05:17:21.210Z,1009.49
2018-01-15T05:18:21.202Z,1009.57
2018-01-15T05:19:21.191Z,1009.39
2018-01-15T05:20:21.181Z,1009.42
2018-01-15T05:21:21.170Z,1009.42
2018-01-15T05:22:21.165Z,1009.40
2018-01-15T05:23:21.154Z,1009.35
2018-01-15T05:24:21.143Z,1009.39
2018-01-15T05:25:21.136Z,1009.39
2018-01-15T05:26:21.119Z,1009.47
2018-01-15T05:27:21.110Z,1009.37
2018-01-15T05:28:21.098Z,1009.37
2018-01-15T05:29:21.088Z,1009.39
2018-01-15T05:30:21.082Z,1009.31
2018-01-15T05:31:21.071Z,1009.36
2018-01-15T05:32:21.061Z,1009.30
2018-01-15T05:33:21.051Z,1009.34
2018-01-15T05:34:21.044Z,1009.36
2018-01-15T05:35:21.031Z,1009.24
2018-01-15T05:36:21.020Z,1009.28
2018-01-15T05:37:21.010Z,1009.23
2018-01-15T05:38:20.996Z,1009.22
2018-01-15T05:39:20.985Z,1009.24
2018-01-15T05:40:20.974Z,1009.24
2018-01-15T05:41:20.964Z,1009.24
2018-01-15T05:42:20.954Z,1009.25
2018-01-15T05:43:20.945Z,1009.23
2018-01-15T05:44:20.934Z,1009.27
2018-01-15T05:45:20.924Z,1009.24
2018-01-15T05:46:20.919Z,1009.17
2018-01-15T05:47:20.908Z,1009.22
2018-01-15T05:48:20.896Z,1009.20
2018-01-15T05:49:20.887Z,1009.21
2018-01-15T05:50:20.877Z,1009.20
2018-01-15T05:51:20.867Z,1009.25
2018-01-15T05:52:20.855Z,1009.20
2018-01-15T05:53:20.846Z,1009.15
2018-01-15T05:54:20.832Z,1009.19
2018-01-15T05:55:20.822Z,1009.22
2018-01-15T05:56:20.810Z,1009.15
2018-01-15T05:57:20.801Z,1009.22
2018-01-15T05:58:20.794Z,1009.20
2018-01-15T05:59:20.783Z,1009.15
2018-01-15T06:00:20.770Z,1009.16
2018-01-15T06:01:20.764Z,1009.05
2018-01-15T06:02:20.754Z,1009.08
2018-01-15T06:03:20.744Z,1009.09
2018-01-15T06:04:20.735Z,1009.06
2018-01-15T06:05:20.724Z,1009.03
2018-01-15T06:06:20.720Z,1009.07
2018-01-15T06:07:20.704Z,1008.95
2018-01-15T06:08:20.693Z,1008.91
2018-01-15T06:09:20.683Z,1008.83
2018-01-15T06:10:20.669Z,1008.88
2018-01-15T06:11:20.659Z,1008.92
2018-01-15T06:12:20.649Z,1008.82
2018-01-15T06:13:20.639Z,1008.81
2018-01-15T06:14:20.628Z,1008.79
2018-01-15T06:15:20.619Z,1008.71
2018-01-15T06:16:20.608Z,1008.73
2018-01-15T06:17:20.598Z,1008.73
2018-01-15T06:18:20.593Z,1008.66
2018-01-15T06:19:20.585Z,1008.69
2018-01-15T06:20:20.572Z,1008.64
2018-01-15T06:21:20.561Z,1008.66
2018-01-15T06:22:20.551Z,1008.62
2018-01-15T06:23:20.543Z,1008.64
2018-01-15T06:24:20.531Z,1008.62
2018-01-15T06:25:20.521Z,1008.64
2018-01-15T06:26:20.507Z,1008.64
2018-01-15T06:27:20.496Z,1008.54
2018-01-15T06:28:20.485Z,1008.56
2018-01-15T06:29:20.476Z,1008.57
2018-01-15T06:30:20.471Z,1008.60
2018-01-15T06:31:20.460Z,1008.54
2018-01-15T06:32:20.449Z,1008.51
2018-01-15T06:33:20.439Z,1008.43
2018-01-15T06:34:20.425Z,1008.47
2018-01-15T06:35:20.414Z,1008.42
2018-01-15T06:36:20.403Z,1008.37
2018-01-15T06:37:20.392Z,1008.29
2018-01-15T06:38:20.382Z,1008.36
2018-01-15T06:39:20.372Z,1008.37
2018-01-15T06:40:20.360Z,1008.32
2018-01-15T06:41:20.350Z,1008.23
2018-01-15T06:42:20.345Z,1008.23
2018-01-15T06:43:20.334Z,1008.20
2018-01-15T06:44:20.322Z,1008.17
2018-01-15T06:45:20.312Z,1008.19
2018-01-15T06:46:20.302Z,1008.22
2018-01-15T06:47:20.292Z,1008.09
2018-01-15T06:48:20.280Z,1008.07
2018-01-15T06:49:20.270Z,1008.08
2018-01-15T06:50:20.255Z,1008.06
2018-01-15T06:51:20.245Z,1008.08
2018-01-15T06:52:20.234Z,1008.06
2018-01-15T06:53:20.223Z,1008.05
2018-01-15T06:54:20.213Z,1008.12
2018-01-15T06:55:20.206Z,1008.05
2018-01-15T06:56:20.192Z,1008.04
2018-01-15T06:57:20.181Z,1008.08
2018-01-15T06:58:20.224Z,1008.11
2018-01-15T06:59:20.165Z,1008.02
2018-01-15T07:00:20.152Z,1008.05
2018-01-15T07:01:20.141Z,1008.02
2018-01-15T07:02:20.131Z,1008.11
2018-01-15T07:03:20.123Z,1008.02
2018-01-15T07:04:20.109Z,1008.00
2018-01-15T07:05:20.098Z,1008.05
2018-01-15T07:06:20.086Z,1008.14
2018-01-15T07:07:20.072Z,1007.89
2018-01-15T07:08:20.062Z,1008.03
2018-01-15T07:09:20.051Z,1007.99
2018-01-15T07:10:20.040Z,1007.88
2018-01-15T07:11:20.030Z,1007.88
2018-01-15T07:12:20.018Z,1007.88
2018-01-15T07:13:20.008Z,1007.89
2018-01-15T07:14:20.001Z,1007.86
2018-01-15T07:15:19.991Z,1007.85
2018-01-15T07:16:19.980Z,1007.85
2018-01-15T07:17:19.968Z,1007.85
2018-01-15T07:18:19.959Z,1007.87
2018-01-15T07:19:19.948Z,1007.87
2018-01-15T07:20:19.935Z,1007.89
2018-01-15T07:21:19.925Z,1007.82
2018-01-15T07:22:19.910Z,1007.90
2018-01-15T07:23:19.900Z,1007.84
2018-01-15T07:24:19.888Z,1007.74
2018-01-15T07:25:19.877Z,1007.81
2018-01-15T07:26:19.867Z,1007.80
2018-01-15T07:27:19.856Z,1007.71
2018-01-15T07:28:19.844Z,1007.74
2018-01-15T07:29:19.834Z,1007.68
2018-01-15T07:30:19.828Z,1007.70
2018-01-15T07:31:19.817Z,1007.81
2018-01-15T07:32:19.806Z,1007.71
2018-01-15T07:33:19.795Z,1007.76
2018-01-15T07:34:19.782Z,1007.70
2018-01-15T07:35:19.770Z,1007.72
2018-01-15T07:36:19.757Z,1007.76
2018-01-15T07:37:19.747Z,1007.76
2018-01-15T07:38:19.741Z,1007.76
2018-01-15T07:39:19.731Z,1007.68
2018-01-15T07:40:19.719Z,1007.67
2018-01-15T07:41:19.709Z,1007.79
2018-01-15T07:42:19.700Z,1007.75
2018-01-15T07:43:19.688Z,1007.63
2018-01-15T07:44:19.676Z,1007.64
2018-01-15T07:45:19.665Z,1007.70
2018-01-15T07:46:19.657Z,1007.65
2018-01-15T07:47:19.641Z,1007.63
2018-01-15T07:48:19.629Z,1007.69
2018-01-15T07:49:19.618Z,1007.61
2018-01-15T07:50:19.619Z,1007.58
2018-01-15T07:51:19.598Z,1007.62
2018-01-15T07:52:19.588Z,1007.57
2018-01-15T07:53:19.576Z,1007.62
2018-01-15T07:54:19.570Z,1007.61
2018-01-15T07:55:19.560Z,1007.63
2018-01-15T07:56:19.549Z,1007.60
2018-01-15T07:57:19.538Z,1007.53
2018-01-15T07:58:19.528Z,1007.56
2018-01-15T07:59:19.518Z,1007.64
2018-01-15T08:00:19.508Z,1007.69
2018-01-15T08:01:19.499Z,1007.68
2018-01-15T08:02:19.482Z,1007.63
2018-01-15T08:03:19.472Z,1007.58
2018-01-15T08:04:19.464Z,1007.57
2018-01-15T08:05:19.451Z,1007.60
2018-01-15T08:06:19.441Z,1007.55
2018-01-15T08:07:19.430Z,1007.53
2018-01-15T08:08:19.420Z,1007.56
2018-01-15T08:09:19.409Z,1007.52
2018-01-15T08:10:19.403Z,1007.55
2018-01-15T08:11:19.393Z,1007.49
2018-01-15T08:12:19.384Z,1007.60
2018-01-15T08:13:19.372Z,1007.49
2018-01-15T08:14:19.362Z,1007.48
2018-01-15T08:15:19.352Z,1007.45
2018-01-15T08:16:19.341Z,1007.48
2018-01-15T08:17:19.331Z,1007.45
2018-01-15T08:18:19.316Z,1007.36
2018-01-15T08:19:19.307Z,1007.31
2018-01-15T08:20:19.297Z,1007.34
2018-01-15T08:21:19.292Z,1007.33
2018-01-15T08:22:19.277Z,1007.26
2018-01-15T08:23:19.266Z,1007.31
2018-01-15T08:24:19.257Z,1007.19
2018-01-15T08:25:19.245Z,1007.32
2018-01-15T08:26:19.239Z,1007.31
2018-01-15T08:27:19.228Z,1007.38
2018-01-15T08:28:19.219Z,1007.31
2018-01-15T08:29:19.210Z,1007.44
2018-01-15T08:30:19.197Z,1007.36
2018-01-15T08:31:19.192Z,1007.31
2018-01-15T08:32:19.177Z,1007.30
2018-01-15T08:33:19.168Z,1007.27
2018-01-15T08:34:19.162Z,1007.30
2018-01-15T08:35:19.143Z,1007.27
2018-01-15T08:36:19.132Z,1007.32
2018-01-15T08:37:19.122Z,1007.28
2018-01-15T08:38:19.116Z,1007.34
2018-01-15T08:39:19.107Z,1007.28
2018-01-15T08:40:19.095Z,1007.22
2018-01-15T08:41:19.088Z,1007.23
2018-01-15T08:42:19.071Z,1007.26
2018-01-15T08:43:19.060Z,1007.17
2018-01-15T08:44:19.050Z,1007.20
2018-01-15T08:45:19.040Z,1007.11
2018-01-15T08:46:19.032Z,1007.10
2018-01-15T08:47:19.019Z,1007.23
2018-01-15T08:48:19.009Z,1007.14
2018-01-15T08:49:18.999Z,1007.10
2018-01-15T08:50:18.999Z,1006.97
2018-01-15T08:51:18.985Z,1006.98
2018-01-15T08:52:18.973Z,1007.02
2018-01-15T08:53:18.967Z,1006.99
2018-01-15T08:54:18.953Z,1006.99
2018-01-15T08:55:18.943Z,1006.96
2018-01-15T08:56:18.932Z,1006.88
2018-01-15T08:57:18.922Z,1006.94
2018-01-15T08:58:18.907Z,1006.87
2018-01-15T08:59:18.898Z,1006.82
2018-01-15T09:00:18.888Z,1006.90
2018-01-15T09:01:18.917Z,1006.84
2018-01-15T09:02:18.868Z,1006.78
2018-01-15T09:03:18.858Z,1006.76
2018-01-15T09:04:18.848Z,1006.79
2018-01-15T09:05:18.837Z,1006.84
2018-01-15T09:06:18.832Z,1006.79
2018-01-15T09:07:18.823Z,1006.80
2018-01-15T09:08:18.812Z,1006.90
2018-01-15T09:09:18.801Z,1006.89
2018-01-15T09:10:18.792Z,1006.75
2018-01-15T09:11:18.785Z,1006.72
2018-01-15T09:12:18.771Z,1006.71
2018-01-15T09:13:18.763Z,1006.64
2018-01-15T09:14:18.750Z,1006.73
2018-01-15T09:15:18.740Z,1006.65
2018-01-15T09:16:18.728Z,1006.62
2018-01-15T09:17:18.719Z,1006.55
2018-01-15T09:18:18.710Z,1006.70
2018-01-15T09:19:18.702Z,1006.52
2018-01-15T09:20:18.690Z,1006.51
2018-01-15T09:21:18.681Z,1006.52
2018-01-15T09:22:18.677Z,1006.51
2018-01-15T09:23:18.666Z,1006.54
2018-01-15T09:24:18.656Z,1006.47
2018-01-15T09:25:18.647Z,1006.42
2018-01-15T09:26:18.643Z,1006.45
2018-01-15T09:27:18.644Z,1006.43
2018-01-15T09:28:18.619Z,1006.37
2018-01-15T09:29:18.610Z,1006.26
2018-01-15T09:30:18.597Z,1006.32
2018-01-15T09:31:18.588Z,1006.34
2018-01-15T09:32:18.578Z,1006.25
2018-01-15T09:33:18.569Z,1006.29
2018-01-15T09:34:18.560Z,1006.28
2018-01-15T09:35:18.552Z,1006.31
2018-01-15T09:36:18.542Z,1006.25
2018-01-15T09:37:18.534Z,1006.35
2018-01-15T09:38:18.530Z,1006.24
2018-01-15T09:39:18.521Z,1006.16
2018-01-15T09:40:18.511Z,1006.18
2018-01-15T09:41:18.504Z,1006.25
2018-01-15T09:42:18.491Z,1006.19
2018-01-15T09:43:18.528Z,1006.25
2018-01-15T09:44:18.474Z,1006.17
2018-01-15T09:45:18.467Z,1006.31
2018-01-15T09:46:18.463Z,1006.18
2018-01-15T09:47:18.455Z,1006.10
2018-01-15T09:48:18.446Z,1006.22
2018-01-15T09:49:18.439Z,1006.09
2018-01-15T09:50:18.431Z,1006.10
2018-01-15T09:51:18.423Z,1006.14
2018-01-15T09:52:18.415Z,1006.14
2018-01-15T09:53:18.407Z,1006.15
2018-01-15T09:54:18.395Z,1006.04
2018-01-15T09:55:18.387Z,1006.07
2018-01-15T09:56:18.380Z,1006.24
2018-01-15T09:57:18.372Z,1006.15
2018-01-15T09:58:18.365Z,1006.41
2018-01-15T09:59:18.357Z,1006.16
2018-01-15T10:00:18.350Z,1006.15
2018-01-15T10:01:18.343Z,1006.20
2018-01-15T10:02:18.341Z,1006.15
2018-01-15T10:03:18.335Z,1006.09
2018-01-15T10:04:18.328Z,1005.97
2018-01-15T10:05:18.322Z,1006.07
2018-01-15T10:06:18.316Z,1005.98
2018-01-15T10:07:18.311Z,1005.96
2018-01-15T10:08:18.305Z,1005.86
2018-01-15T10:09:18.301Z,1005.98
2018-01-15T10:10:18.294Z,1005.90
2018-01-15T10:11:18.287Z,1005.82
2018-01-15T10:12:18.280Z,1005.74
2018-01-15T10:13:18.275Z,1005.75
2018-01-15T10:14:18.270Z,1005.75
2018-01-15T10:15:18.267Z,1005.72
2018-01-15T10:16:18.259Z,1005.67
2018-01-15T10:17:18.253Z,1005.63
2018-01-15T10:18:18.251Z,1005.67
2018-01-15T10:19:18.246Z,1005.56
2018-01-15T10:20:18.240Z,1005.60
2018-01-15T10:21:18.234Z,1005.46
2018-01-15T10:22:18.228Z,1005.40
2018-01-15T10:23:18.223Z,1005.45
2018-01-15T10:24:18.215Z,1005.45
2018-01-15T10:25:18.210Z,1005.38
2018-01-15T10:26:18.199Z,1005.59
2018-01-15T10:27:18.194Z,1005.40
2018-01-15T10:28:18.186Z,1005.39
2018-01-15T10:29:18.180Z,1005.29
2018-01-15T10:30:18.173Z,1005.27
2018-01-15T10:31:18.166Z,1005.25
2018-01-15T10:32:18.160Z,1005.22
2018-01-15T10:33:18.152Z,1005.16
2018-01-15T10:34:18.148Z,1005.15
2018-01-15T10:35:18.141Z,1005.16
2018-01-15T10:36:18.134Z,1005.05
2018-01-15T10:37:18.126Z,1005.03
2018-01-15T10:38:18.119Z,1004.94
2018-01-15T10:39:18.112Z,1004.94
2018-01-15T10:40:18.103Z,1004.87
2018-01-15T10:41:18.097Z,1004.91
2018-01-15T10:42:18.086Z,1004.82
2018-01-15T10:43:18.080Z,1004.89
2018-01-15T10:44:18.070Z,1004.82
2018-01-15T10:45:18.063Z,1004.72
2018-01-15T10:46:18.060Z,1004.72
2018-01-15T10:47:18.051Z,1004.80
2018-01-15T10:48:18.043Z,1004.72
2018-01-15T10:49:18.035Z,1004.68
2018-01-15T10:50:18.025Z,1004.58
2018-01-15T10:51:18.017Z,1004.72
2018-01-15T10:52:18.008Z,1004.71
2018-01-15T10:53:18.001Z,1004.52
2018-01-15T10:54:17.992Z,1004.60
2018-01-15T10:55:17.985Z,1004.50
2018-01-15T10:56:17.977Z,1004.48
2018-01-15T10:57:18.023Z,1004.46
2018-01-15T10:58:17.966Z,1004.52
2018-01-15T10:59:18.003Z,1004.38
2018-01-15T11:00:17.959Z,1004.51
2018-01-15T11:01:17.977Z,1004.36
2018-01-15T11:02:18.042Z,1004.36
2018-01-15T11:03:17.998Z,1004.28
2018-01-15T11:04:18.030Z,1004.24
2018-01-15T11:05:18.072Z,1004.28
2018-01-15T11:06:17.985Z,1004.16
2018-01-15T11:07:18.059Z,1004.15
2018-01-15T11:08:18.024Z,1004.12
2018-01-15T11:09:18.625Z,1004.03
2018-01-15T11:10:18.472Z,1004.05
2018-01-15T11:11:19.994Z,1004.04
2018-01-15T11:12:17.849Z,1003.92
2018-01-15T11:13:17.942Z,1003.97
2018-01-15T11:14:18.671Z,1003.87
2018-01-15T11:15:19.776Z,1003.84
2018-01-15T11:16:19.005Z,1003.82
2018-01-15T11:17:19.420Z,1003.91
2018-01-15T11:18:18.750Z,1003.80
2018-01-15T11:19:19.479Z,1003.72
2018-01-15T11:20:18.348Z,1003.68
2018-01-15T11:21:18.627Z,1003.62
2018-01-15T11:22:19.882Z,1003.66
2018-01-15T11:23:20.373Z,1003.53
2018-01-15T11:24:19.715Z,1003.54
2018-01-15T11:25:17.743Z,1003.50
2018-01-15T11:26:17.868Z,1003.66
2018-01-15T11:27:19.129Z,1003.45
2018-01-15T11:28:18.875Z,1003.44
2018-01-15T11:29:18.576Z,1003.46
2018-01-15T11:30:18.559Z,1003.41
2018-01-15T11:31:17.693Z,1003.44
2018-01-15T11:32:17.720Z,1003.44
2018-01-15T11:33:17.685Z,1003.33
2018-01-15T11:34:17.776Z,1003.32
2018-01-15T11:35:17.785Z,1003.26
2018-01-15T11:36:17.747Z,1003.21
2018-01-15T11:37:17.744Z,1003.17
2018-01-15T11:38:17.630Z,1003.17
2018-01-15T11:39:17.739Z,1003.09
2018-01-15T11:40:17.612Z,1002.99
2018-01-15T11:41:17.727Z,1003.00
2018-01-15T11:42:17.679Z,1003.00
2018-01-15T11:43:18.303Z,1003.06
2018-01-15T11:44:17.740Z,1002.99
2018-01-15T11:45:17.658Z,1002.84
2018-01-15T11:46:17.753Z,1002.82
2018-01-15T11:47:17.795Z,1002.81
2018-01-15T11:48:17.666Z,1002.95
2018-01-15T11:49:17.658Z,1002.67
2018-01-15T11:50:17.578Z,1002.57
2018-01-15T11:51:17.640Z,1002.65
2018-01-15T11:52:17.657Z,1002.55
2018-01-15T11:53:17.600Z,1002.48
2018-01-15T11:54:17.656Z,1002.39
2018-01-15T11:55:17.610Z,1002.40
2018-01-15T11:56:17.614Z,1002.34
2018-01-15T11:57:17.556Z,1002.30
2018-01-15T11:58:17.533Z,1002.35
2018-01-15T11:59:17.588Z,1002.24
2018-01-15T12:00:17.777Z,1002.31
2018-01-15T12:01:17.596Z,1002.17
2018-01-15T12:02:18.326Z,1002.14
2018-01-15T12:03:17.423Z,1002.05
2018-01-15T12:04:17.502Z,1002.08
2018-01-15T12:05:17.529Z,1002.07